Inicio METAR Ruta Wind Satelite

Informe Meteorológico

Fecha: 2020/09/22 22:08:30 Local
2020.09.23 03:08 UTC


Estado: VENCIDO
Operación:VFR
Valledupar / Alfonso Lopez, Colombia (SKVP) 10-26N 073-15W
2020.09.22 2300 UTC
Wind: from the SW (220 degrees) at 7 MPH (6 KT):0
Visibility: greater than 7 mile(s):0
Sky conditions: mostly clear
Temperature: 87 F (31 C)
Heat index: 95.7 F (35.4 C):1
Dew Point: 75 F (24 C)
Relative Humidity: 66%
Pressure (altimeter): 29.8 in. Hg (1009 hPa)
ob: SKVP 222300Z 22006KT 9999 FEW020 31/24 A2980
cycle: 23

SKVP 222200Z 08005KT 050V120 9999 FEW020 34/21 A2978
SKVP 222100Z 06004KT 350V110 9999 FEW020 35/20 A2977
SKVP 222000Z 04004KT 999 FEW020 35/21 A2978
SKVP 221900Z 07005KT 040V100 9999 FEW020 34/22 A2979
SKVP 221800Z 16003KT 9999 FEW020 34/23 A2982